createdAt,value
2022-08-03T00:03:37.729Z,57.91
2022-08-03T00:13:40.928Z,58.17
2022-08-03T00:23:51.376Z,58.61
2022-08-03T00:33:58.090Z,59.08
2022-08-03T00:44:04.554Z,59.52
2022-08-03T00:54:07.741Z,60.53
2022-08-03T01:04:12.230Z,60.99
2022-08-03T01:14:22.502Z,61.13
2022-08-03T01:24:38.119Z,61.59
2022-08-03T01:35:06.953Z,60.92
2022-08-03T01:45:12.484Z,61.23
2022-08-03T01:55:18.948Z,62.06
2022-08-03T02:05:22.522Z,61.57
2022-08-03T02:15:28.178Z,62.87
2022-08-03T02:25:31.885Z,63.05
2022-08-03T02:35:37.315Z,62.13
2022-08-03T02:45:45.705Z,62.27
2022-08-03T02:55:51.460Z,62.04
2022-08-03T03:05:57.639Z,62.63
2022-08-03T03:16:04.871Z,63.07
2022-08-03T03:26:08.911Z,63.15
2022-08-03T03:36:13.539Z,63.05
2022-08-03T03:46:16.954Z,63.78
2022-08-03T03:56:21.529Z,63.36
2022-08-03T04:06:42.340Z,64.74
2022-08-03T04:16:49.731Z,63.15
2022-08-03T04:26:53.060Z,62.25
2022-08-03T04:37:00.692Z,60.39
2022-08-03T04:47:04.302Z,60.76
2022-08-03T04:57:08.954Z,59.83
2022-08-03T05:07:13.209Z,59.84
2022-08-03T05:17:18.278Z,59.91
2022-08-03T05:27:21.642Z,59.27
2022-08-03T05:37:26.908Z,58.70
2022-08-03T05:47:30.248Z,58.55
2022-08-03T05:57:34.943Z,59.15
2022-08-03T06:07:38.653Z,56.60
2022-08-03T06:17:48.774Z,56.21
2022-08-03T06:27:52.581Z,54.09
2022-08-03T06:37:57.152Z,51.39
2022-08-03T06:48:02.071Z,50.02
2022-08-03T06:58:06.875Z,46.83
2022-08-03T07:08:10.498Z,45.75
2022-08-03T07:18:15.016Z,44.41
2022-08-03T07:28:18.280Z,44.84
2022-08-03T07:38:22.901Z,43.59
2022-08-03T07:48:26.082Z,42.63
2022-08-03T07:58:30.739Z,38.33
2022-08-03T08:08:33.905Z,38.67
2022-08-03T08:18:38.521Z,36.32
2022-08-03T08:28:41.748Z,40.69
2022-08-03T08:38:46.354Z,41.69
2022-08-03T08:48:50.229Z,41.58
2022-08-03T08:58:59.126Z,40.46
2022-08-03T09:09:02.674Z,37.25
2022-08-03T09:19:15.035Z,35.96
2022-08-03T09:29:21.966Z,34.38
2022-08-03T09:39:41.295Z,33.37
2022-08-03T09:49:58.999Z,31.84
2022-08-03T10:00:12.360Z,31.96
2022-08-03T10:10:30.065Z,31.57
2022-08-03T10:20:39.025Z,31.04
2022-08-03T10:30:42.906Z,29.31
2022-08-03T10:40:50.475Z,28.34
2022-08-03T10:50:55.930Z,29.37
2022-08-03T11:01:00.551Z,27.56
2022-08-03T11:11:25.656Z,28.23
2022-08-03T11:22:08.518Z,28.16
2022-08-03T11:32:16.647Z,26.97
2022-08-03T11:42:48.076Z,25.51
2022-08-03T11:52:52.808Z,25.03
2022-08-03T12:03:00.532Z,24.10
2022-08-03T12:14:44.752Z,24.67
2022-08-03T12:23:34.851Z,23.39
2022-08-03T12:33:59.372Z,22.27
2022-08-03T12:44:04.470Z,24.54
2022-08-03T12:54:09.613Z,24.50
2022-08-03T13:04:27.559Z,24.47
2022-08-03T13:14:34.262Z,24.55
2022-08-03T13:24:37.448Z,24.36
2022-08-03T13:34:42.056Z,23.35
2022-08-03T13:44:45.265Z,24.97
2022-08-03T13:54:49.897Z,23.41
2022-08-03T14:04:54.691Z,22.98
2022-08-03T14:15:01.560Z,24.67
2022-08-03T14:25:09.776Z,24.20
2022-08-03T14:35:16.055Z,23.02
2022-08-03T14:45:20.085Z,24.12
2022-08-03T14:55:25.613Z,23.63
2022-08-03T15:05:41.462Z,23.88
2022-08-03T15:15:46.067Z,24.32
2022-08-03T15:26:32.398Z,25.71
2022-08-03T15:36:41.931Z,24.08
2022-08-03T15:46:45.122Z,25.50
2022-08-03T15:56:49.846Z,25.63
2022-08-03T16:06:53.110Z,25.95
2022-08-03T16:16:58.883Z,26.36
2022-08-03T16:27:02.326Z,26.42
2022-08-03T16:37:35.427Z,26.03
2022-08-03T16:47:32.533Z,26.11
2022-08-03T16:57:59.385Z,26.33
2022-08-03T17:08:04.338Z,26.80
2022-08-03T17:18:18.593Z,27.41
2022-08-03T17:28:49.098Z,27.92
2022-08-03T17:38:51.155Z,30.35
2022-08-03T17:48:56.960Z,32.76
2022-08-03T17:59:08.620Z,35.20
2022-08-03T18:10:04.045Z,36.35
2022-08-03T18:20:01.749Z,39.48
2022-08-03T18:30:01.764Z,42.05
2022-08-03T18:40:08.034Z,42.04
2022-08-03T18:50:19.068Z,44.27
2022-08-03T19:00:42.742Z,45.45
2022-08-03T19:10:57.831Z,45.39
2022-08-03T19:21:15.721Z,46.94
2022-08-03T19:31:19.183Z,48.64
2022-08-03T19:41:31.225Z,47.82
2022-08-03T19:52:01.337Z,48.77
2022-08-03T20:02:08.934Z,49.60
2022-08-03T20:12:27.958Z,49.87
2022-08-03T20:22:35.929Z,51.12
2022-08-03T20:32:42.594Z,52.57
2022-08-03T20:42:47.456Z,52.55
2022-08-03T20:52:50.908Z,52.97
2022-08-03T21:02:55.445Z,54.00
2022-08-03T21:23:34.976Z,55.34
2022-08-03T21:33:48.257Z,56.20
2022-08-03T21:43:52.945Z,57.02
2022-08-03T21:54:02.878Z,56.62
2022-08-03T22:04:11.863Z,57.31
2022-08-03T22:14:15.238Z,58.20
2022-08-03T22:24:24.033Z,57.55
2022-08-03T22:34:27.745Z,59.32
2022-08-03T22:44:33.036Z,59.89
2022-08-03T22:54:36.817Z,59.02
2022-08-03T23:04:42.625Z,59.90
2022-08-03T23:14:46.546Z,60.24
2022-08-03T23:24:51.379Z,60.51
2022-08-03T23:35:14.830Z,60.88
2022-08-03T23:45:21.149Z,61.67
2022-08-03T23:55:39.036Z,58.38
